createdAt,value
2022-09-23T13:15:27.606Z,101226.52
2022-09-23T13:19:27.948Z,101220.27
2022-09-23T13:23:29.794Z,101211.98
2022-09-23T13:27:17.622Z,101208.13
2022-09-23T13:31:07.731Z,101200.95
2022-09-23T13:34:42.481Z,101197.33
2022-09-23T13:38:38.264Z,101193.01
2022-09-23T13:42:26.800Z,101194.73
2022-09-23T13:46:17.968Z,101190.98
2022-09-23T13:50:06.333Z,101191.15
2022-09-23T13:53:45.142Z,101181.21
2022-09-23T13:57:34.368Z,101181.77
2022-09-23T14:01:23.107Z,101168.63
2022-09-23T14:05:12.693Z,101165.10
2022-09-23T14:08:39.266Z,101161.08
2022-09-23T14:15:55.499Z,101161.83
2022-09-23T14:19:49.297Z,101157.62
2022-09-23T14:23:47.372Z,101163.36
2022-09-23T14:27:42.832Z,101152.58
2022-09-23T14:31:32.859Z,101153.86
2022-09-23T14:35:41.551Z,101150.52
2022-09-23T14:39:31.853Z,101142.24
2022-09-23T14:43:21.747Z,101139.77
2022-09-23T14:47:12.389Z,101136.95
2022-09-23T14:51:14.659Z,101134.17
2022-09-23T14:55:15.963Z,101124.86
2022-09-23T14:59:09.490Z,101125.56
2022-09-23T15:07:38.763Z,101116.98
2022-09-23T15:12:01.416Z,101121.50
2022-09-23T15:15:59.528Z,101121.52
2022-09-23T15:29:11.863Z,101110.73
2022-09-23T15:33:03.341Z,101108.38
2022-09-23T15:36:56.109Z,101106.13
2022-09-23T15:40:55.957Z,101104.20
2022-09-23T15:44:58.646Z,101102.83
2022-09-23T15:48:49.635Z,101104.15
2022-09-23T15:52:53.485Z,101105.63
2022-09-23T16:01:03.348Z,101106.16
2022-09-23T16:14:07.317Z,101104.64
2022-09-23T16:17:45.791Z,101103.02
2022-09-23T16:34:58.143Z,101087.42
2022-09-23T16:37:25.354Z,101086.88
2022-09-23T16:39:54.570Z,101091.42
2022-09-23T16:42:25.890Z,101092.60
2022-09-23T16:44:54.215Z,101091.23
2022-09-23T16:47:22.505Z,101091.35
2022-09-23T16:49:50.179Z,101096.20
2022-09-23T16:52:19.240Z,101090.71
2022-09-23T16:54:48.240Z,101092.75
2022-09-23T16:57:16.240Z,101096.47
2022-09-23T17:00:02.513Z,101094.90
2022-09-23T17:02:50.800Z,101090.52
2022-09-23T17:05:22.566Z,101097.90
2022-09-23T17:07:49.931Z,101095.65
2022-09-23T17:10:20.155Z,101094.48
2022-09-23T17:12:47.656Z,101094.42
2022-09-23T17:15:19.194Z,101100.27
2022-09-23T17:17:49.129Z,101093.94
2022-09-23T17:20:21.075Z,101092.69
2022-09-23T17:22:53.853Z,101096.05
2022-09-23T17:25:23.868Z,101093.05
2022-09-23T17:28:01.109Z,101092.33
2022-09-23T17:30:33.102Z,101089.05
2022-09-23T17:36:01.690Z,101091.05
2022-09-23T17:38:30.681Z,101093.95
2022-09-23T17:41:07.686Z,101089.08
2022-09-23T17:43:38.176Z,101088.84
2022-09-23T17:46:57.249Z,101092.52
2022-09-23T17:50:18.328Z,101097.17
2022-09-23T17:56:10.179Z,101099.45
2022-09-23T17:59:43.732Z,101099.49
2022-09-23T18:03:03.417Z,101092.88
2022-09-23T18:06:41.278Z,101098.31
2022-09-23T18:10:24.998Z,101098.27
2022-09-23T18:13:22.763Z,101092.15
2022-09-23T18:16:37.554Z,101096.42
2022-09-23T18:19:57.152Z,101098.18
2022-09-23T18:27:11.644Z,101093.59
2022-09-23T18:34:01.920Z,101092.85
2022-09-23T18:36:30.181Z,101092.52
2022-09-23T18:39:07.194Z,101090.46
2022-09-23T18:41:44.982Z,101082.80
2022-09-23T18:44:18.652Z,101077.91
2022-09-23T18:46:48.570Z,101075.16
2022-09-23T18:49:37.077Z,101077.13
2022-09-23T18:52:22.932Z,101074.85
2022-09-23T18:55:01.235Z,101073.61
2022-09-23T18:57:32.466Z,101073.92
2022-09-23T19:00:00.427Z,101077.72
2022-09-23T19:02:29.741Z,101076.05
2022-09-23T19:04:59.777Z,101074.27
2022-09-23T19:07:28.702Z,101077.54
2022-09-23T19:09:57.654Z,101075.75
2022-09-23T19:12:25.761Z,101079.89
2022-09-23T19:14:53.194Z,101077.10
2022-09-23T19:17:20.202Z,101075.89
2022-09-23T19:19:48.480Z,101071.44
2022-09-23T19:22:16.719Z,101073.88
2022-09-23T19:24:47.639Z,101075.10
2022-09-23T19:27:19.901Z,101072.92
2022-09-23T19:29:47.424Z,101072.41
2022-09-23T19:32:15.299Z,101068.55
2022-09-23T19:34:43.779Z,101070.23
2022-09-23T19:37:12.124Z,101073.88
2022-09-23T19:39:40.630Z,101073.66
2022-09-23T19:42:10.137Z,101074.40
2022-09-23T19:44:38.691Z,101073.29
2022-09-23T19:47:05.903Z,101067.98
2022-09-23T19:49:33.542Z,101067.21
2022-09-23T19:52:02.401Z,101065.13
2022-09-23T19:54:30.865Z,101070.55
2022-09-23T19:56:59.168Z,101069.67
2022-09-23T19:59:28.595Z,101070.04
2022-09-23T20:01:55.401Z,101063.55
2022-09-23T20:04:22.368Z,101062.32
2022-09-23T20:06:49.905Z,101060.83
2022-09-23T20:09:18.875Z,101062.52
2022-09-23T20:11:46.734Z,101059.19
2022-09-23T20:14:19.641Z,101060.73
2022-09-23T20:16:47.611Z,101059.58
2022-09-23T20:19:14.622Z,101056.59
2022-09-23T20:21:41.613Z,101054.22
2022-09-23T20:24:08.836Z,101054.19
2022-09-23T20:26:54.651Z,101051.45
2022-09-23T20:29:23.739Z,101051.30
2022-09-23T20:31:50.503Z,101049.98
2022-09-23T20:34:18.930Z,101049.94
2022-09-23T20:36:46.296Z,101052.93
2022-09-23T20:39:13.507Z,101051.64
2022-09-23T20:41:41.282Z,101046.15
2022-09-23T20:44:11.775Z,101044.01
2022-09-23T20:46:44.022Z,101047.14
2022-09-23T20:49:16.019Z,101042.86
2022-09-23T20:51:43.474Z,101045.92
2022-09-23T20:54:12.607Z,101040.71
2022-09-23T20:56:41.698Z,101036.62
2022-09-23T20:59:09.960Z,101040.29
2022-09-23T21:01:37.180Z,101045.73
2022-09-23T21:04:16.450Z,101051.80
2022-09-23T21:07:10.056Z,101051.77
2022-09-23T21:09:43.796Z,101053.20
2022-09-23T21:12:19.261Z,101048.06
2022-09-23T21:14:46.671Z,101051.20
2022-09-23T21:17:14.157Z,101051.39
2022-09-23T21:19:43.255Z,101044.12
2022-09-23T21:22:12.580Z,101049.55
2022-09-23T21:25:16.058Z,101050.86
2022-09-23T21:27:30.158Z,101049.69
2022-09-23T21:29:58.879Z,101051.25
2022-09-23T21:32:25.942Z,101049.83
2022-09-23T21:34:53.315Z,101045.59
2022-09-23T21:37:30.125Z,101046.30
2022-09-23T21:40:15.434Z,101044.96
2022-09-23T21:42:42.321Z,101045.80
2022-09-23T21:45:12.345Z,101042.45
2022-09-23T21:47:40.627Z,101041.33
2022-09-23T21:50:09.832Z,101041.19
2022-09-23T21:52:39.806Z,101043.57
2022-09-23T21:55:06.913Z,101038.27
2022-09-23T21:57:35.273Z,101040.59
2022-09-23T22:00:02.367Z,101034.89
2022-09-23T22:02:33.755Z,101034.27
2022-09-23T22:05:01.004Z,101031.79
2022-09-23T22:07:29.330Z,101032.61
2022-09-23T22:09:56.646Z,101030.69
2022-09-23T22:12:24.757Z,101025.64
2022-09-23T22:14:51.588Z,101032.45
2022-09-23T22:17:20.741Z,101026.98
2022-09-23T22:19:51.515Z,101027.17
2022-09-23T22:22:18.490Z,101024.11
2022-09-23T22:24:47.533Z,101022.67
2022-09-23T22:27:18.553Z,101017.40
2022-09-23T22:30:08.324Z,101021.05
2022-09-23T22:32:41.921Z,101017.04
2022-09-23T22:35:12.038Z,101013.59
2022-09-23T22:37:39.976Z,101010.86
2022-09-23T22:40:09.868Z,101012.61
2022-09-23T22:42:38.002Z,101008.70
2022-09-23T22:45:14.674Z,101011.11
2022-09-23T22:47:49.646Z,101006.73
2022-09-23T22:50:29.782Z,101002.95
2022-09-23T22:52:59.395Z,101005.43
2022-09-23T22:55:29.855Z,101007.70
2022-09-23T22:58:15.405Z,101007.44
2022-09-23T23:00:49.258Z,101003.84
2022-09-23T23:03:21.129Z,101003.41
2022-09-23T23:06:04.250Z,101003.80
2022-09-23T23:08:37.525Z,100999.58
2022-09-23T23:11:12.426Z,100998.18
2022-09-23T23:13:43.494Z,100995.62
2022-09-23T23:16:12.353Z,100992.58
2022-09-23T23:18:44.708Z,100994.31
2022-09-23T23:21:22.626Z,100993.16
2022-09-23T23:23:57.787Z,100991.56
2022-09-23T23:26:32.414Z,100998.10
2022-09-23T23:29:03.818Z,100993.77
2022-09-23T23:31:34.386Z,100990.90
2022-09-23T23:34:16.193Z,100986.26
2022-09-23T23:36:46.296Z,100988.57
2022-09-23T23:39:15.582Z,100981.60
2022-09-23T23:41:44.680Z,100984.21
2022-09-23T23:44:20.791Z,100985.34
2022-09-23T23:47:07.452Z,100983.24
2022-09-23T23:49:39.004Z,100981.81
2022-09-23T23:52:11.233Z,100985.66
2022-09-23T23:54:44.762Z,100984.92
2022-09-23T23:57:17.906Z,100983.38
2022-09-23T23:59:49.473Z,100978.38
